Chanthaburi, Thailand

12:24 PM ICT on December 11, 2016 (GMT +0700)
Trat | | Change Station

Elev 105 ft 12.27 °N, 102.32 °E | Updated 24 minutes ago

Partly Cloudy
Partly Cloudy
86 °F
Feels Like 88 °F
N
6
Wind Variable Wind from WSW

Today
High -- | Low -- °F
--% Chance of Precip.
Yesterday
High -- | Low -- °F
Precip. -- in
Pressure 29.83 in
Visibility 3.1 miles
Clouds
Heat Index 88 °F
Dew Point 66 °F
Humidity 51%
Rainfall 0.00 in
Snow Depth Not available.
6:22 AM 5:46 PM
Waxing Gibbous, 89% visible
METAR VTBO 110500Z 25005KT 5000 HZ NSC 30/19 Q1010
Pressure 29.83 in
Visibility 3.1 miles
Clouds
Heat Index 88 °F
Dew Point 66 °F
Humidity 51%
Rainfall 0.00 in
Snow Depth Not available.
6:22 AM 5:46 PM
Waxing Gibbous, 89% visible
METAR VTBO 110500Z 25005KT 5000 HZ NSC 30/19 Q1010

10-Day Weather Forecast

No radar image for this location.
×

Almanac

Astronomy

Dec. 11, 2016 Rise Set
Actual Time
Civil Twilight
Nautical Twilight
Astronomical Twilight
Moon
Length of Visible Light
Length of Day
Tomorrow will be .
, % of the Moon is Illuminated

Today's Extremes

Country Highs Country Lows

Community

WunderPhotos

Upload Photos

1,956,705 photos uploaded!

WunderBlog® & News

Nearby

Air Quality

  Air Quality AQ Index Pollutant
Not available.

Snow Depth

Station Depth Elevation

Earthquake Activity

City Distance Mag. Time & Date
Minimum magnitude displayed is 2.5.

Coastal Water Temperatures

Place Temperature

Stations

Nearby Weather Stations

Station Location Temp. Windchill Dew Point Humidity Wind Precip. Elev Updated Type